Time;durP1;ratioP1;P1;durP2;ratioP2;P2;SDS_P1;SDS_P2;PMS_P1;PMS_P2;Temp;Humidity;BMP_temperature;BMP_pressure;BME280_temperature;BME280_humidity;BME280_pressure;Samples;Min_cycle;Max_cycle;Signal;HPM_P1;HPM_P2
2022/11/03 00:01:06;;;;;;;0.30;0.30;;;8.00;99.90;;;;;;5054815;28;20490;-94
2022/11/03 00:03:32;;;;;;;0.30;0.30;;;8.10;99.90;;;;;;5050444;28;20441;-94
2022/11/03 00:06:03;;;;;;;0.30;0.30;;;8.10;99.90;;;;;;5041225;28;20188;-93
2022/11/03 00:08:33;;;;;;;0.20;0.20;;;8.10;99.90;;;;;;5043672;28;20263;-93
2022/11/03 00:11:17;;;;;;;0.30;0.30;;;8.10;99.90;;;;;;5041330;28;20499;-93
2022/11/03 00:13:43;;;;;;;0.30;0.30;;;8.10;99.90;;;;;;5055973;28;20497;-92
2022/11/03 00:16:10;;;;;;;0.20;0.20;;;8.20;99.90;;;;;;5048411;28;20430;-92
2022/11/03 00:21:12;;;;;;;0.30;0.30;;;8.10;99.90;;;;;;5011210;28;20510;-95
2022/11/03 00:23:40;;;;;;;0.27;0.27;;;8.10;99.90;;;;;;5013319;28;20483;-96
2022/11/03 00:26:22;;;;;;;0.30;0.30;;;8.10;99.90;;;;;;5044032;23;20510;-94
2022/11/03 00:28:50;;;;;;;0.30;0.30;;;8.10;99.90;;;;;;5029460;28;20467;-94
2022/11/03 00:31:19;;;;;;;0.30;0.30;;;8.20;99.90;;;;;;5008195;28;20444;-93
2022/11/03 00:33:45;;;;;;;0.20;0.20;;;8.20;99.90;;;;;;5018248;28;20419;-95
2022/11/03 00:36:16;;;;;;;0.30;0.30;;;8.20;99.90;;;;;;5023406;28;20457;-94
2022/11/03 00:38:43;;;;;;;0.30;0.30;;;8.10;99.90;;;;;;5036008;23;20457;-94
2022/11/03 00:41:10;;;;;;;0.20;0.20;;;8.20;99.90;;;;;;5043891;28;20465;-94
2022/11/03 00:43:36;;;;;;;0.30;0.30;;;8.20;99.90;;;;;;5050586;23;20495;-95
2022/11/03 00:46:04;;;;;;;0.30;0.30;;;8.20;99.90;;;;;;5048241;28;20504;-92
2022/11/03 00:51:13;;;;;;;0.20;0.20;;;8.10;99.90;;;;;;5102753;23;20505;-94
2022/11/03 00:53:42;;;;;;;0.30;0.30;;;8.10;99.90;;;;;;5029361;28;20723;-92
2022/11/03 00:56:22;;;;;;;0.23;0.23;;;8.20;99.90;;;;;;5041308;28;20468;-96
2022/11/03 00:58:49;;;;;;;0.30;0.30;;;8.10;99.90;;;;;;5041954;28;20435;-95
2022/11/03 01:01:24;;;;;;;0.30;0.30;;;8.10;99.90;;;;;;5048834;28;20507;-95
2022/11/03 01:06:51;;;;;;;0.30;0.30;;;8.10;99.90;;;;;;5050789;28;20927;-95
2022/11/03 01:09:24;;;;;;;0.30;0.30;;;8.00;99.90;;;;;;5020000;28;20485;-94
2022/11/03 01:11:57;;;;;;;0.30;0.30;;;8.10;99.90;;;;;;5040813;28;20446;-94
2022/11/03 01:14:25;;;;;;;0.30;0.30;;;8.10;99.90;;;;;;5023966;28;20454;-94
2022/11/03 01:16:51;;;;;;;0.23;0.23;;;8.10;99.90;;;;;;5038217;28;20450;-94
2022/11/03 01:19:16;;;;;;;0.30;0.30;;;8.10;99.90;;;;;;5045494;28;20828;-94
2022/11/03 01:21:42;;;;;;;0.30;0.30;;;8.10;99.90;;;;;;5034484;28;20187;-93
2022/11/03 01:24:08;;;;;;;0.20;0.20;;;8.10;99.90;;;;;;5025673;28;20200;-95
2022/11/03 01:29:01;;;;;;;0.30;0.30;;;8.10;99.90;;;;;;5037979;23;20755;-94
2022/11/03 01:31:28;;;;;;;0.30;0.30;;;8.10;99.90;;;;;;5033765;28;20450;-93
2022/11/03 01:33:54;;;;;;;0.30;0.30;;;8.10;99.90;;;;;;5041753;28;20194;-94
2022/11/03 01:36:21;;;;;;;0.30;0.30;;;8.00;99.90;;;;;;5033480;28;20551;-94
2022/11/03 01:38:47;;;;;;;0.30;0.30;;;8.10;99.90;;;;;;5027313;28;20462;-96
2022/11/03 01:41:15;;;;;;;0.30;0.30;;;8.10;99.90;;;;;;5042768;28;20462;-93
2022/11/03 01:43:41;;;;;;;0.30;0.30;;;8.10;99.90;;;;;;5034373;28;20442;-95
2022/11/03 01:46:10;;;;;;;0.30;0.30;;;8.00;99.90;;;;;;5038397;28;20443;-94
2022/11/03 01:48:39;;;;;;;0.27;0.27;;;8.10;99.90;;;;;;5031571;28;20465;-94
2022/11/03 01:51:06;;;;;;;0.30;0.30;;;8.10;99.90;;;;;;5028329;28;20537;-92
2022/11/03 01:53:32;;;;;;;0.20;0.20;;;8.10;99.90;;;;;;5043322;28;20933;-94
2022/11/03 01:55:59;;;;;;;0.30;0.30;;;8.10;99.90;;;;;;5043854;28;20434;-93
2022/11/03 01:58:32;;;;;;;0.30;0.30;;;8.10;99.90;;;;;;5025697;28;20446;-95
2022/11/03 02:01:00;;;;;;;0.20;0.20;;;8.10;99.90;;;;;;5019257;28;20439;-94
2022/11/03 02:03:27;;;;;;;0.30;0.30;;;8.10;99.90;;;;;;5027605;28;20438;-96
2022/11/03 02:05:54;;;;;;;0.30;0.30;;;8.20;99.90;;;;;;5019568;28;20427;-95
2022/11/03 02:08:38;;;;;;;0.20;0.20;;;8.20;99.90;;;;;;5014577;28;20496;-95
2022/11/03 02:12:05;;;;;;;0.30;0.30;;;8.20;99.90;;;;;;5042567;28;20453;-94
2022/11/03 02:13:50;;;;;;;0.30;0.30;;;8.10;99.90;;;;;;5030392;28;20461;-96
2022/11/03 02:16:16;;;;;;;0.20;0.20;;;8.20;99.90;;;;;;5041443;28;20439;-91
2022/11/03 02:18:43;;;;;;;0.30;0.30;;;8.10;99.90;;;;;;5018412;28;20188;-95
2022/11/03 02:21:24;;;;;;;0.30;0.30;;;8.10;99.90;;;;;;5019953;28;20446;-95
2022/11/03 02:24:13;;;;;;;0.30;0.30;;;8.10;99.90;;;;;;5031093;28;20810;-95
2022/11/03 02:26:42;;;;;;;0.30;0.30;;;8.10;99.90;;;;;;5020240;28;20459;-94
2022/11/03 02:29:07;;;;;;;0.30;0.30;;;8.20;99.90;;;;;;5033080;28;20971;-92
2022/11/03 02:31:40;;;;;;;0.30;0.30;;;8.20;99.90;;;;;;5038839;28;20449;-94
2022/11/03 02:34:14;;;;;;;0.30;0.30;;;8.20;99.90;;;;;;5042754;28;20310;-92
2022/11/03 02:36:52;;;;;;;0.30;0.30;;;8.20;99.90;;;;;;5026885;28;20446;-95
2022/11/03 02:39:34;;;;;;;0.30;0.30;;;8.20;99.90;;;;;;5043895;28;20430;-94
2022/11/03 02:42:02;;;;;;;0.30;0.30;;;8.20;99.90;;;;;;5033870;28;20457;-96
2022/11/03 02:44:31;;;;;;;0.30;0.30;;;8.20;99.90;;;;;;5112313;23;20515;-93
2022/11/03 02:46:59;;;;;;;0.30;0.30;;;8.20;99.90;;;;;;5023168;28;20501;-92
2022/11/03 02:49:25;;;;;;;0.30;0.30;;;8.20;99.90;;;;;;5021101;28;20473;-95
2022/11/03 02:52:04;;;;;;;0.30;0.30;;;8.20;99.90;;;;;;5030752;28;20439;-95
2022/11/03 02:54:37;;;;;;;0.30;0.30;;;8.20;99.90;;;;;;5022238;28;20211;-94
2022/11/03 02:57:09;;;;;;;0.20;0.20;;;8.20;99.90;;;;;;5045353;28;20489;-93
2022/11/03 02:59:45;;;;;;;0.30;0.30;;;8.20;99.90;;;;;;5035342;28;20461;-93
2022/11/03 03:02:17;;;;;;;0.20;0.20;;;8.30;99.90;;;;;;5027351;28;20456;-96
2022/11/03 03:04:49;;;;;;;0.30;0.30;;;8.30;99.90;;;;;;5020855;28;20450;-95
2022/11/03 03:07:21;;;;;;;0.30;0.30;;;8.30;99.90;;;;;;5041795;28;20466;-93
2022/11/03 03:09:51;;;;;;;0.30;0.30;;;8.30;99.90;;;;;;5033856;28;20488;-95
2022/11/03 03:12:18;;;;;;;0.30;0.30;;;8.20;99.90;;;;;;5037991;28;20685;-93
2022/11/03 03:14:45;;;;;;;0.30;0.30;;;8.20;99.90;;;;;;5029279;28;20443;-93
2022/11/03 03:17:28;;;;;;;0.20;0.20;;;8.20;99.90;;;;;;5046661;28;20872;-95
2022/11/03 03:20:27;;;;;;;0.30;0.30;;;8.20;99.90;;;;;;5039384;28;20450;-94
2022/11/03 03:23:13;;;;;;;0.23;0.23;;;8.10;99.90;;;;;;5020232;28;20438;-96
2022/11/03 03:25:44;;;;;;;0.30;0.30;;;8.10;99.90;;;;;;5028416;28;20544;-94
2022/11/03 03:28:21;;;;;;;0.30;0.30;;;8.10;99.90;;;;;;5042054;28;20445;-95
2022/11/03 03:30:49;;;;;;;0.20;0.20;;;8.10;99.90;;;;;;5036366;28;20535;-96
2022/11/03 03:33:16;;;;;;;0.20;0.20;;;8.10;99.90;;;;;;5034711;28;20461;-92
2022/11/03 03:35:45;;;;;;;0.20;0.20;;;8.10;99.90;;;;;;5034053;28;20446;-94
2022/11/03 03:38:17;;;;;;;0.30;0.30;;;8.10;99.90;;;;;;5016624;28;20434;-91
2022/11/03 03:40:47;;;;;;;0.30;0.30;;;8.10;99.90;;;;;;5037733;28;20446;-95
2022/11/03 03:43:13;;;;;;;0.30;0.30;;;8.10;99.90;;;;;;5031338;28;20453;-94
2022/11/03 03:45:41;;;;;;;0.30;0.30;;;8.10;99.90;;;;;;5023526;28;20454;-92
2022/11/03 03:48:07;;;;;;;0.30;0.30;;;8.10;99.90;;;;;;5032512;28;20445;-92
2022/11/03 03:50:36;;;;;;;0.30;0.30;;;8.10;99.90;;;;;;5018647;28;20529;-95
2022/11/03 03:53:08;;;;;;;0.30;0.30;;;8.10;99.90;;;;;;5038392;28;20176;-95
2022/11/03 03:55:42;;;;;;;0.30;0.30;;;8.20;99.90;;;;;;5025616;28;20466;-95
2022/11/03 03:58:12;;;;;;;0.20;0.20;;;8.20;99.90;;;;;;5041857;28;20449;-95
2022/11/03 04:00:38;;;;;;;0.30;0.30;;;8.20;99.90;;;;;;5027703;28;20438;-95
2022/11/03 04:03:05;;;;;;;0.30;0.30;;;8.10;99.90;;;;;;5036156;28;20538;-92
2022/11/03 04:05:30;;;;;;;0.20;0.20;;;8.10;99.90;;;;;;5019276;28;20537;-94
2022/11/03 04:07:57;;;;;;;0.30;0.30;;;8.10;99.90;;;;;;5027910;28;20541;-94
2022/11/03 04:10:23;;;;;;;0.20;0.20;;;8.20;99.90;;;;;;5029847;28;20215;-94
2022/11/03 04:23:49;;;;;;;0.30;0.30;;;8.20;99.90;;;;;;5034830;28;20500;-93
2022/11/03 04:26:21;;;;;;;0.30;0.30;;;8.10;99.90;;;;;;5031834;28;20442;-94
2022/11/03 04:28:48;;;;;;;0.20;0.20;;;8.20;99.90;;;;;;5021301;28;20212;-91
2022/11/03 04:31:15;;;;;;;0.30;0.30;;;8.20;99.90;;;;;;5032436;28;20450;-94
2022/11/03 04:33:42;;;;;;;0.30;0.30;;;8.20;99.90;;;;;;5033614;28;20476;-91
2022/11/03 04:36:20;;;;;;;0.30;0.30;;;8.20;99.90;;;;;;5035013;28;20859;-95
2022/11/03 04:38:46;;;;;;;0.30;0.30;;;8.20;99.90;;;;;;5034471;28;20465;-94
2022/11/03 04:41:15;;;;;;;0.30;0.30;;;8.20;99.90;;;;;;5014182;28;20434;-92
2022/11/03 04:43:42;;;;;;;0.30;0.30;;;8.20;99.90;;;;;;5015340;28;20491;-93
2022/11/03 04:46:11;;;;;;;0.23;0.23;;;8.20;99.90;;;;;;5030613;28;20509;-94
2022/11/03 04:48:37;;;;;;;0.20;0.20;;;8.20;99.90;;;;;;5015947;28;20617;-94
2022/11/03 04:51:13;;;;;;;0.30;0.30;;;8.10;99.90;;;;;;5030843;28;21066;-93
2022/11/03 04:53:46;;;;;;;0.30;0.30;;;8.10;99.90;;;;;;5007414;28;20223;-93
2022/11/03 04:56:16;;;;;;;0.30;0.30;;;8.10;99.90;;;;;;5028457;28;20862;-93
2022/11/03 04:58:41;;;;;;;0.30;0.30;;;8.10;99.90;;;;;;5033372;28;20453;-93
2022/11/03 05:01:12;;;;;;;0.30;0.30;;;8.10;99.90;;;;;;5028714;28;20471;-95
2022/11/03 05:03:39;;;;;;;0.30;0.30;;;8.10;99.90;;;;;;5034990;28;20243;-95
2022/11/03 05:06:18;;;;;;;0.30;0.30;;;8.00;99.90;;;;;;5004165;28;20457;-94
2022/11/03 05:08:49;;;;;;;0.30;0.30;;;8.00;99.90;;;;;;5031798;28;20463;-92
2022/11/03 05:11:28;;;;;;;0.30;0.30;;;8.00;99.90;;;;;;5027709;28;20475;-92
2022/11/03 05:13:58;;;;;;;0.30;0.30;;;8.00;99.90;;;;;;5023767;28;20449;-92
2022/11/03 05:16:23;;;;;;;0.30;0.30;;;8.00;99.90;;;;;;5029042;28;20944;-92
2022/11/03 05:18:49;;;;;;;0.30;0.30;;;8.00;99.90;;;;;;5014335;28;20446;-92
2022/11/03 05:21:18;;;;;;;0.30;0.30;;;8.00;99.90;;;;;;5030454;28;20270;-93
2022/11/03 05:23:47;;;;;;;0.20;0.20;;;7.90;99.90;;;;;;5016724;28;20187;-94
2022/11/03 05:26:23;;;;;;;0.30;0.30;;;7.90;99.90;;;;;;5015055;28;20446;-92
2022/11/03 05:28:58;;;;;;;0.30;0.30;;;7.90;99.90;;;;;;5017239;28;20487;-93
2022/11/03 05:31:30;;;;;;;0.30;0.30;;;7.90;99.90;;;;;;5028975;28;20587;-91
2022/11/03 05:34:00;;;;;;;0.30;0.30;;;7.90;99.90;;;;;;5005600;28;20454;-92
2022/11/03 05:36:29;;;;;;;0.30;0.30;;;7.90;99.90;;;;;;5031153;28;20947;-93
2022/11/03 05:38:58;;;;;;;0.30;0.30;;;7.90;99.90;;;;;;5044131;28;20497;-92
2022/11/03 05:41:26;;;;;;;0.30;0.30;;;8.00;99.90;;;;;;5021445;28;20488;-95
2022/11/03 05:43:56;;;;;;;0.30;0.30;;;8.00;99.90;;;;;;5012581;28;20545;-94
2022/11/03 05:46:23;;;;;;;0.30;0.30;;;8.00;99.90;;;;;;5029231;28;20443;-93
2022/11/03 05:48:49;;;;;;;0.30;0.30;;;7.90;99.90;;;;;;5030526;28;20548;-91
2022/11/03 05:51:24;;;;;;;0.30;0.30;;;7.90;99.90;;;;;;5019641;28;20884;-93
2022/11/03 05:53:54;;;;;;;0.20;0.20;;;7.90;99.90;;;;;;5030094;28;20198;-92
2022/11/03 05:56:22;;;;;;;0.30;0.30;;;7.90;99.90;;;;;;5025755;28;20455;-92
2022/11/03 05:58:50;;;;;;;0.30;0.30;;;7.90;99.90;;;;;;5017631;28;20450;-95
2022/11/03 06:01:27;;;;;;;0.30;0.30;;;7.90;99.90;;;;;;5024745;28;20460;-92
2022/11/03 06:03:53;;;;;;;0.30;0.30;;;7.90;99.90;;;;;;5011841;28;20476;-95
2022/11/03 06:06:37;;;;;;;0.30;0.30;;;7.90;99.90;;;;;;5031000;28;20434;-96
2022/11/03 06:09:12;;;;;;;0.30;0.30;;;8.00;99.90;;;;;;5025715;28;20222;-94
2022/11/03 06:11:38;;;;;;;0.30;0.30;;;8.00;99.90;;;;;;5020875;28;20455;-95
2022/11/03 06:14:19;;;;;;;0.30;0.30;;;7.90;99.90;;;;;;5025661;28;20446;-92
2022/11/03 06:16:48;;;;;;;0.30;0.30;;;7.90;99.90;;;;;;5011433;28;20444;-94
2022/11/03 06:19:27;;;;;;;0.30;0.30;;;7.90;99.90;;;;;;5021212;28;20443;-92
2022/11/03 06:21:56;;;;;;;0.30;0.30;;;7.90;99.90;;;;;;5018540;28;20438;-93
2022/11/03 06:24:27;;;;;;;0.30;0.30;;;8.00;99.90;;;;;;5027680;28;20450;-92
2022/11/03 06:26:53;;;;;;;0.30;0.30;;;8.00;99.90;;;;;;5008602;28;20442;-88
2022/11/03 06:29:20;;;;;;;0.30;0.30;;;8.00;99.90;;;;;;5010183;28;20509;-93
2022/11/03 06:31:48;;;;;;;0.30;0.30;;;8.10;99.90;;;;;;5025045;28;20263;-94
2022/11/03 06:34:39;;;;;;;0.30;0.30;;;8.00;99.90;;;;;;5027598;28;20584;-92
2022/11/03 06:37:30;;;;;;;0.30;0.30;;;8.10;99.90;;;;;;5027760;28;20442;-95
2022/11/03 06:40:10;;;;;;;0.40;0.40;;;8.00;99.90;;;;;;5005285;28;20449;-93
2022/11/03 06:42:40;;;;;;;0.30;0.30;;;8.00;99.90;;;;;;5026614;28;20482;-94
2022/11/03 06:45:19;;;;;;;0.30;0.30;;;8.10;99.90;;;;;;5027344;28;20473;-93
2022/11/03 06:47:46;;;;;;;0.30;0.30;;;8.10;99.90;;;;;;5024843;28;20466;-95
2022/11/03 06:50:28;;;;;;;0.30;0.30;;;8.10;99.90;;;;;;5037233;28;20486;-96
2022/11/03 06:52:55;;;;;;;0.30;0.30;;;8.10;99.90;;;;;;5028380;28;20558;-95
2022/11/03 06:55:25;;;;;;;0.20;0.20;;;8.20;99.90;;;;;;5036445;28;20517;-95
2022/11/03 06:57:56;;;;;;;0.30;0.30;;;8.20;99.90;;;;;;5032674;28;20466;-96
2022/11/03 07:00:27;;;;;;;0.30;0.30;;;8.20;99.90;;;;;;5030606;28;20450;-94
2022/11/03 07:03:01;;;;;;;0.30;0.30;;;8.20;99.90;;;;;;5024951;28;20454;-93
2022/11/03 07:05:29;;;;;;;0.30;0.30;;;8.30;99.90;;;;;;5016939;28;20449;-94
2022/11/03 07:07:57;;;;;;;0.30;0.30;;;8.30;99.90;;;;;;5020522;28;20442;-96
2022/11/03 07:10:30;;;;;;;0.30;0.30;;;8.30;99.90;;;;;;5035469;28;20529;-95
2022/11/03 07:12:58;;;;;;;0.20;0.20;;;8.30;99.90;;;;;;5024020;28;20469;-96
2022/11/03 07:15:32;;;;;;;0.30;0.30;;;8.30;99.90;;;;;;5028365;28;21010;-96
2022/11/03 07:17:59;;;;;;;0.30;0.30;;;8.40;99.90;;;;;;5048504;28;20430;-93
2022/11/03 07:20:25;;;;;;;0.30;0.30;;;8.40;99.90;;;;;;5033585;28;20442;-96
2022/11/03 07:22:52;;;;;;;0.30;0.30;;;8.40;99.90;;;;;;5023206;28;20489;-95
2022/11/03 07:25:20;;;;;;;0.27;0.27;;;8.40;99.90;;;;;;5041693;28;20446;-95
2022/11/03 07:27:49;;;;;;;0.30;0.30;;;8.50;99.90;;;;;;5029806;28;20449;-95
2022/11/03 07:30:18;;;;;;;0.30;0.30;;;8.50;99.90;;;;;;5047634;28;20499;-95
2022/11/03 07:32:43;;;;;;;0.30;0.30;;;8.60;99.90;;;;;;5044909;28;20434;-95
2022/11/03 07:35:28;;;;;;;0.30;0.30;;;8.60;99.90;;;;;;5027707;28;20862;-92
2022/11/03 07:37:54;;;;;;;0.30;0.30;;;8.60;99.90;;;;;;5013228;28;20256;-92
2022/11/03 07:40:26;;;;;;;0.27;0.27;;;8.60;99.90;;;;;;5010191;28;21010;-90
2022/11/03 07:42:56;;;;;;;0.20;0.20;;;8.60;99.90;;;;;;5025389;28;20458;-90
2022/11/03 07:45:39;;;;;;;0.30;0.30;;;8.70;99.90;;;;;;5010342;28;21164;-93
2022/11/03 07:48:16;;;;;;;0.20;0.20;;;8.70;99.90;;;;;;5006496;28;20439;-95
2022/11/03 07:50:42;;;;;;;0.30;0.30;;;8.70;99.90;;;;;;5024568;28;20453;-94
2022/11/03 07:53:29;;;;;;;0.30;0.30;;;8.80;99.90;;;;;;5032208;28;20429;-95
2022/11/03 07:55:55;;;;;;;0.20;0.20;;;8.80;99.90;;;;;;5028796;28;20184;-91
2022/11/03 07:58:35;;;;;;;0.20;0.20;;;8.80;99.90;;;;;;5023596;28;20446;-92
2022/11/03 08:01:06;;;;;;;0.20;0.20;;;8.80;99.90;;;;;;5034668;28;20238;-95
2022/11/03 08:03:45;;;;;;;0.20;0.20;;;8.90;99.90;;;;;;5021537;28;20431;-94
2022/11/03 08:06:10;;;;;;;0.30;0.30;;;8.90;99.90;;;;;;5016330;28;21166;-94
2022/11/03 08:08:36;;;;;;;0.20;0.20;;;9.00;99.90;;;;;;5035003;28;20474;-93
2022/11/03 08:11:02;;;;;;;0.20;0.20;;;9.00;99.90;;;;;;5028775;28;20200;-95
2022/11/03 08:13:27;;;;;;;0.20;0.20;;;9.00;99.90;;;;;;5037459;28;20204;-96
2022/11/03 08:15:53;;;;;;;0.30;0.30;;;9.00;99.90;;;;;;5027545;28;20318;-94
2022/11/03 08:18:18;;;;;;;0.30;0.30;;;9.10;99.90;;;;;;5022432;28;20755;-94
2022/11/03 08:20:43;;;;;;;0.30;0.30;;;9.10;99.90;;;;;;5037353;28;20194;-94
2022/11/03 08:23:10;;;;;;;0.20;0.20;;;9.10;99.90;;;;;;5034146;28;20220;-94
2022/11/03 08:25:36;;;;;;;0.20;0.20;;;9.10;99.90;;;;;;5029765;28;20183;-93
2022/11/03 08:28:02;;;;;;;0.20;0.20;;;9.20;99.90;;;;;;5037458;28;20444;-94
2022/11/03 08:30:28;;;;;;;0.30;0.30;;;9.20;99.90;;;;;;5006801;28;20484;-92
2022/11/03 08:32:54;;;;;;;0.20;0.20;;;9.30;99.90;;;;;;5019979;28;20518;-93
2022/11/03 08:35:20;;;;;;;0.20;0.20;;;9.30;99.90;;;;;;5036966;23;20488;-95
2022/11/03 08:37:45;;;;;;;0.20;0.20;;;9.30;99.90;;;;;;5015963;28;20185;-92
2022/11/03 08:40:12;;;;;;;0.20;0.20;;;9.30;99.90;;;;;;4995788;28;20655;-95
2022/11/03 08:42:37;;;;;;;0.30;0.30;;;9.40;99.90;;;;;;5001769;28;20181;-95
2022/11/03 08:45:03;;;;;;;0.30;0.30;;;9.50;99.90;;;;;;4995085;28;20432;-93
2022/11/03 08:47:28;;;;;;;0.20;0.20;;;9.60;99.90;;;;;;5004798;28;20194;-94
2022/11/03 08:49:54;;;;;;;0.20;0.20;;;9.70;99.90;;;;;;5011859;28;20212;-88
2022/11/03 08:52:20;;;;;;;0.20;0.20;;;9.80;99.90;;;;;;5010821;28;20192;-96
2022/11/03 08:54:46;;;;;;;0.20;0.20;;;9.90;99.90;;;;;;5010424;28;20347;-89
2022/11/03 08:57:11;;;;;;;0.20;0.20;;;10.10;99.90;;;;;;5007197;28;20970;-87
2022/11/03 08:59:37;;;;;;;0.20;0.20;;;10.30;99.90;;;;;;4989634;28;20185;-87
2022/11/03 09:02:03;;;;;;;0.20;0.20;;;10.40;99.90;;;;;;5011455;28;20718;-91
2022/11/03 09:04:28;;;;;;;0.20;0.20;;;10.50;99.90;;;;;;5010920;28;20189;-84
2022/11/03 09:06:54;;;;;;;0.20;0.20;;;10.60;99.90;;;;;;5012382;28;20194;-79
2022/11/03 09:09:20;;;;;;;0.20;0.20;;;10.70;99.90;;;;;;5008558;28;20216;-82
2022/11/03 09:11:46;;;;;;;0.20;0.20;;;10.70;99.90;;;;;;5005611;28;20181;-83
2022/11/03 09:14:11;;;;;;;0.20;0.20;;;10.70;99.90;;;;;;5025719;28;20449;-84
2022/11/03 09:16:37;;;;;;;0.20;0.20;;;10.80;99.90;;;;;;5027568;28;20449;-85
2022/11/03 09:19:02;;;;;;;0.20;0.20;;;11.00;99.90;;;;;;5026436;28;20200;-87
2022/11/03 09:21:28;;;;;;;0.20;0.20;;;10.90;99.90;;;;;;5029612;28;20195;-85
2022/11/03 09:23:53;;;;;;;0.20;0.20;;;10.90;99.90;;;;;;5022656;28;20252;-85
2022/11/03 09:26:19;;;;;;;0.20;0.20;;;11.00;99.90;;;;;;5023509;28;20241;-83
2022/11/03 09:28:44;;;;;;;0.20;0.20;;;11.10;99.90;;;;;;5010817;28;20696;-83
2022/11/03 09:31:10;;;;;;;0.20;0.20;;;11.20;99.90;;;;;;5004990;28;20192;-82
2022/11/03 09:33:36;;;;;;;0.20;0.20;;;11.50;99.90;;;;;;5000054;28;20184;-85
2022/11/03 09:36:01;;;;;;;0.20;0.20;;;11.70;99.90;;;;;;5017958;28;20231;-84
2022/11/03 09:38:27;;;;;;;0.20;0.20;;;11.90;99.90;;;;;;5022556;28;20187;-85
2022/11/03 09:40:54;;;;;;;0.20;0.20;;;12.10;99.90;;;;;;5009984;28;20192;-85
2022/11/03 09:43:19;;;;;;;0.20;0.20;;;12.30;99.90;;;;;;5004246;28;20243;-85
2022/11/03 09:45:45;;;;;;;0.20;0.20;;;12.40;99.90;;;;;;5022900;28;20442;-84
2022/11/03 09:48:11;;;;;;;0.10;0.10;;;12.40;99.90;;;;;;5029286;28;20183;-84
2022/11/03 09:50:38;;;;;;;0.20;0.20;;;12.20;99.90;;;;;;5028118;28;20234;-84
2022/11/03 09:53:04;;;;;;;0.20;0.20;;;12.10;99.90;;;;;;5028338;28;20435;-95
2022/11/03 09:55:30;;;;;;;0.10;0.10;;;11.90;99.90;;;;;;5015609;28;20465;-94
2022/11/03 09:57:59;;;;;;;0.20;0.20;;;11.70;99.90;;;;;;5034605;28;20441;-87
2022/11/03 10:00:26;;;;;;;0.20;0.20;;;11.70;99.90;;;;;;5030242;28;20195;-88
2022/11/03 10:02:52;;;;;;;0.20;0.20;;;11.60;99.90;;;;;;5010143;28;20499;-87
2022/11/03 10:05:26;;;;;;;0.20;0.20;;;11.50;99.90;;;;;;5028414;28;21061;-89
2022/11/03 10:07:57;;;;;;;0.20;0.20;;;11.50;99.90;;;;;;5022626;28;20802;-87
2022/11/03 10:10:24;;;;;;;0.20;0.20;;;11.40;99.90;;;;;;5020643;28;20572;-85
2022/11/03 10:12:52;;;;;;;0.20;0.20;;;11.30;99.90;;;;;;5023731;28;20438;-84
2022/11/03 10:15:19;;;;;;;0.20;0.20;;;11.30;99.90;;;;;;5021383;28;20446;-86
2022/11/03 10:17:46;;;;;;;0.20;0.20;;;11.30;99.90;;;;;;5011099;28;21071;-86
2022/11/03 10:20:13;;;;;;;0.20;0.20;;;11.30;99.90;;;;;;5028291;28;20584;-87
2022/11/03 10:22:41;;;;;;;0.20;0.20;;;11.30;99.90;;;;;;5017093;28;20540;-87
2022/11/03 10:25:25;;;;;;;0.20;0.20;;;11.30;99.90;;;;;;5023027;28;20449;-85
2022/11/03 10:27:50;;;;;;;0.20;0.20;;;11.40;99.90;;;;;;5018759;28;20969;-86
2022/11/03 10:30:16;;;;;;;0.20;0.20;;;11.60;99.90;;;;;;5005443;28;20520;-86
2022/11/03 10:32:41;;;;;;;0.20;0.20;;;11.70;99.90;;;;;;5018950;28;20210;-87
2022/11/03 10:35:35;;;;;;;0.20;0.20;;;11.70;99.90;;;;;;5020717;28;20663;-85
2022/11/03 10:38:24;;;;;;;0.20;0.20;;;11.80;99.90;;;;;;5000107;28;20188;-86
2022/11/03 10:40:49;;;;;;;0.20;0.20;;;11.90;99.90;;;;;;5003682;28;20460;-87
2022/11/03 10:43:15;;;;;;;0.20;0.20;;;12.10;99.90;;;;;;5021596;28;20443;-86
2022/11/03 10:45:40;;;;;;;0.10;0.10;;;12.40;99.90;;;;;;5023088;28;20746;-88
2022/11/03 10:48:07;;;;;;;0.20;0.20;;;12.50;99.90;;;;;;5022568;28;20204;-87
2022/11/03 10:50:33;;;;;;;0.10;0.10;;;12.40;99.90;;;;;;5008861;28;20229;-87
2022/11/03 10:52:58;;;;;;;0.20;0.20;;;12.40;99.90;;;;;;5021975;28;20451;-86
2022/11/03 10:55:25;;;;;;;0.10;0.10;;;12.40;99.90;;;;;;5014957;28;20563;-88
2022/11/03 10:57:54;;;;;;;0.17;0.17;;;12.30;99.90;;;;;;5028530;28;20183;-87
2022/11/03 11:00:20;;;;;;;0.20;0.20;;;12.30;99.90;;;;;;5014045;28;20489;-88
2022/11/03 11:02:47;;;;;;;0.10;0.10;;;12.30;99.90;;;;;;5006022;28;20438;-89
2022/11/03 11:05:21;;;;;;;0.10;0.10;;;12.40;99.90;;;;;;5005009;28;20184;-89
2022/11/03 11:07:51;;;;;;;0.10;0.10;;;12.40;99.90;;;;;;5003511;28;20456;-85
2022/11/03 11:10:26;;;;;;;0.10;0.10;;;12.20;99.90;;;;;;5022468;28;20576;-88
2022/11/03 11:13:25;;;;;;;0.20;0.20;;;12.20;99.90;;;;;;5023856;28;20445;-88
2022/11/03 11:15:55;;;;;;;0.10;0.10;;;12.20;99.90;;;;;;4974819;28;20458;-86
2022/11/03 11:18:30;;;;;;;0.10;0.10;;;12.20;99.90;;;;;;5019879;28;20449;-87
2022/11/03 11:21:23;;;;;;;0.10;0.10;;;12.30;99.90;;;;;;5016280;28;20448;-88
2022/11/03 11:23:51;;;;;;;0.10;0.10;;;12.30;99.90;;;;;;4996977;28;20456;-86
2022/11/03 11:26:30;;;;;;;0.20;0.20;;;12.40;99.90;;;;;;5013510;28;20456;-87
2022/11/03 11:29:08;;;;;;;0.10;0.10;;;12.70;99.90;;;;;;5018685;28;20528;-87
2022/11/03 11:31:34;;;;;;;0.10;0.10;;;12.90;99.90;;;;;;5017146;28;20442;-85
2022/11/03 11:34:09;;;;;;;0.10;0.10;;;12.90;99.90;;;;;;5021509;28;20727;-87
2022/11/03 11:36:36;;;;;;;0.10;0.10;;;12.90;99.90;;;;;;5018092;28;20230;-87
2022/11/03 11:39:03;;;;;;;0.10;0.10;;;12.90;99.90;;;;;;5017315;28;20524;-85
2022/11/03 11:42:06;;;;;;;0.10;0.10;;;12.90;99.90;;;;;;5002208;28;20454;-88
2022/11/03 11:45:02;;;;;;;0.10;0.10;;;12.90;99.90;;;;;;5017184;28;20910;-85
2022/11/03 11:47:39;;;;;;;0.20;0.20;;;12.90;99.90;;;;;;5023889;28;21016;-88
2022/11/03 11:50:05;;;;;;;0.10;0.10;;;13.00;99.90;;;;;;5015795;28;21016;-88
2022/11/03 11:52:43;;;;;;;0.10;0.10;;;13.10;99.90;;;;;;5013340;28;20613;-86
2022/11/03 11:55:33;;;;;;;0.10;0.10;;;13.00;99.90;;;;;;5012086;28;20191;-88
2022/11/03 11:58:01;;;;;;;0.10;0.10;;;13.00;99.90;;;;;;4997387;28;20450;-84
2022/11/03 12:00:30;;;;;;;0.10;0.10;;;13.10;99.90;;;;;;5027201;28;20529;-86
2022/11/03 12:02:58;;;;;;;0.20;0.20;;;13.00;99.90;;;;;;5028067;28;20813;-85
2022/11/03 12:05:26;;;;;;;0.10;0.10;;;13.00;99.90;;;;;;5027153;28;20909;-86
2022/11/03 12:07:53;;;;;;;0.10;0.10;;;13.00;99.90;;;;;;5026218;28;20515;-86
2022/11/03 12:10:37;;;;;;;0.20;0.20;;;13.00;99.90;;;;;;5021969;28;20485;-86
2022/11/03 12:13:41;;;;;;;0.10;0.10;;;13.00;99.90;;;;;;5025820;28;20855;-85
2022/11/03 12:16:07;;;;;;;0.10;0.10;;;12.90;99.90;;;;;;5017081;28;20483;-86
2022/11/03 12:18:41;;;;;;;0.10;0.10;;;12.80;99.90;;;;;;5026724;28;20481;-85
2022/11/03 12:21:29;;;;;;;0.10;0.10;;;12.80;99.90;;;;;;5007990;28;20187;-85
2022/11/03 12:23:55;;;;;;;0.20;0.20;;;12.70;99.90;;;;;;5012871;28;21002;-85
2022/11/03 12:26:24;;;;;;;0.20;0.20;;;12.70;99.90;;;;;;5019226;28;20534;-85
2022/11/03 12:28:49;;;;;;;0.10;0.10;;;12.70;99.90;;;;;;5011462;28;20200;-84
2022/11/03 12:31:15;;;;;;;0.10;0.10;;;12.70;99.90;;;;;;5025019;28;20453;-85
2022/11/03 12:33:40;;;;;;;0.10;0.10;;;12.60;99.90;;;;;;5023515;28;20180;-85
2022/11/03 12:36:07;;;;;;;0.10;0.10;;;12.70;99.90;;;;;;5021194;28;20239;-86
2022/11/03 12:38:32;;;;;;;0.20;0.20;;;12.70;99.90;;;;;;5016806;28;20238;-86
2022/11/03 12:41:19;;;;;;;0.10;0.10;;;12.70;99.90;;;;;;5024431;28;20446;-84
2022/11/03 12:43:43;;;;;;;0.10;0.10;;;12.70;99.90;;;;;;5024285;28;20180;-85
2022/11/03 12:46:08;;;;;;;0.10;0.10;;;12.70;99.90;;;;;;5025622;28;20443;-85
2022/11/03 12:48:34;;;;;;;0.20;0.20;;;12.60;99.90;;;;;;5023996;28;20893;-86
2022/11/03 12:50:59;;;;;;;0.20;0.20;;;12.60;99.90;;;;;;5023368;28;20208;-85
2022/11/03 12:53:25;;;;;;;0.10;0.10;;;12.60;99.90;;;;;;5027733;28;20191;-86
2022/11/03 12:55:50;;;;;;;0.20;0.20;;;12.60;99.90;;;;;;5026477;28;20187;-85
2022/11/03 12:58:16;;;;;;;0.20;0.20;;;12.50;99.90;;;;;;5026626;28;20675;-86
2022/11/03 13:00:41;;;;;;;0.10;0.10;;;12.50;99.90;;;;;;5021919;28;20257;-85
2022/11/03 13:03:07;;;;;;;0.10;0.10;;;12.50;99.90;;;;;;5015188;28;20192;-86
2022/11/03 13:05:32;;;;;;;0.10;0.10;;;12.50;99.90;;;;;;5016370;28;20196;-86
2022/11/03 13:07:57;;;;;;;0.20;0.20;;;12.50;99.90;;;;;;5018936;28;20659;-86
2022/11/03 13:10:23;;;;;;;0.10;0.10;;;12.60;99.90;;;;;;5011179;28;20223;-87
2022/11/03 13:12:49;;;;;;;0.10;0.10;;;12.70;99.90;;;;;;5027941;28;20188;-86
2022/11/03 13:15:15;;;;;;;0.10;0.10;;;12.80;99.90;;;;;;5024655;28;20289;-85
2022/11/03 13:17:41;;;;;;;0.10;0.10;;;12.80;99.90;;;;;;5019359;28;20195;-86
2022/11/03 13:20:07;;;;;;;0.10;0.10;;;13.00;99.90;;;;;;5012336;28;20501;-87
2022/11/03 13:22:33;;;;;;;0.10;0.10;;;13.10;99.90;;;;;;5019371;28;20442;-83
2022/11/03 13:24:58;;;;;;;0.10;0.10;;;13.20;99.90;;;;;;5023597;28;20446;-87
2022/11/03 13:27:23;;;;;;;0.10;0.10;;;13.20;99.90;;;;;;5024396;28;20190;-88
2022/11/03 13:29:49;;;;;;;0.10;0.10;;;13.30;99.90;;;;;;5020470;28;20655;-86